createdAt,value
2019-05-29T00:00:44.378Z,1003.10
2019-05-29T00:01:44.369Z,1003.10
2019-05-29T00:02:44.346Z,1003.05
2019-05-29T00:03:44.340Z,1003.06
2019-05-29T00:04:49.345Z,1003.08
2019-05-29T00:05:44.335Z,1003.07
2019-05-29T00:06:44.320Z,1003.13
2019-05-29T00:07:44.290Z,1003.12
2019-05-29T00:08:44.278Z,1003.14
2019-05-29T00:09:44.272Z,1003.12
2019-05-29T00:10:44.261Z,1003.09
2019-05-29T00:11:44.262Z,1003.14
2019-05-29T00:12:44.247Z,1003.15
2019-05-29T00:13:44.225Z,1003.13
2019-05-29T00:14:44.213Z,1003.18
2019-05-29T00:15:49.232Z,1003.16
2019-05-29T00:16:44.230Z,1003.15
2019-05-29T00:17:44.182Z,1003.15
2019-05-29T00:18:44.170Z,1003.22
2019-05-29T00:19:44.156Z,1003.26
2019-05-29T00:20:44.148Z,1003.21
2019-05-29T00:21:44.137Z,1003.22
2019-05-29T00:22:44.139Z,1003.20
2019-05-29T00:23:44.116Z,1003.23
2019-05-29T00:24:44.102Z,1003.24
2019-05-29T00:25:44.090Z,1003.30
2019-05-29T00:26:49.133Z,1003.32
2019-05-29T00:27:44.082Z,1003.36
2019-05-29T00:28:44.098Z,1003.32
2019-05-29T00:29:44.059Z,1003.36
2019-05-29T00:30:44.036Z,1003.29
2019-05-29T00:31:44.025Z,1003.35
2019-05-29T00:32:44.105Z,1003.35
2019-05-29T00:33:44.009Z,1003.41
2019-05-29T00:34:43.992Z,1003.37
2019-05-29T00:35:43.996Z,1003.39
2019-05-29T00:36:43.968Z,1003.39
2019-05-29T00:37:48.997Z,1003.34
2019-05-29T00:38:43.962Z,1003.35
2019-05-29T00:39:43.937Z,1003.33
2019-05-29T00:40:43.927Z,1003.33
2019-05-29T00:41:43.913Z,1003.34
2019-05-29T00:42:43.914Z,1003.34
2019-05-29T00:43:43.890Z,1003.36
2019-05-29T00:44:43.882Z,1003.38
2019-05-29T00:45:43.872Z,1003.36
2019-05-29T00:46:43.862Z,1003.40
2019-05-29T00:47:43.910Z,1003.39
2019-05-29T00:48:48.856Z,1003.41
2019-05-29T00:49:43.825Z,1003.42
2019-05-29T00:50:43.818Z,1003.44
2019-05-29T00:51:43.801Z,1003.40
2019-05-29T00:52:44.163Z,1003.40
2019-05-29T00:53:43.807Z,1003.44
2019-05-29T00:54:43.766Z,1003.45
2019-05-29T00:55:43.759Z,1003.48
2019-05-29T00:56:43.761Z,1003.56
2019-05-29T00:57:43.772Z,1003.52
2019-05-29T00:58:43.726Z,1003.54
2019-05-29T00:59:48.743Z,1003.55
2019-05-29T01:00:43.703Z,1003.59
2019-05-29T01:01:43.698Z,1003.56
2019-05-29T01:02:43.721Z,1003.55
2019-05-29T01:03:43.681Z,1003.59
2019-05-29T01:04:43.655Z,1003.63
2019-05-29T01:05:43.646Z,1003.62
2019-05-29T01:06:43.655Z,1003.68
2019-05-29T01:07:43.656Z,1003.68
2019-05-29T01:08:43.632Z,1003.61
2019-05-29T01:09:43.599Z,1003.71
2019-05-29T01:10:48.649Z,1003.66
2019-05-29T01:11:43.579Z,1003.70
2019-05-29T01:12:43.568Z,1003.66
2019-05-29T01:13:43.575Z,1003.79
2019-05-29T01:14:50.103Z,1003.78
2019-05-29T01:15:44.584Z,1003.83
2019-05-29T01:16:43.521Z,1003.79
2019-05-29T01:17:43.516Z,1003.79
2019-05-29T01:18:43.519Z,1003.88
2019-05-29T01:19:43.492Z,1003.78
2019-05-29T01:20:43.492Z,1003.79
2019-05-29T01:21:48.491Z,1003.85
2019-05-29T01:22:43.460Z,1003.87
2019-05-29T01:23:43.462Z,1003.87
2019-05-29T01:24:43.437Z,1003.91
2019-05-29T01:25:43.424Z,1003.92
2019-05-29T01:26:43.411Z,1003.92
2019-05-29T01:27:43.407Z,1003.90
2019-05-29T01:28:43.406Z,1003.91
2019-05-29T01:29:43.383Z,1003.95
2019-05-29T01:30:43.367Z,1003.98
2019-05-29T01:31:43.367Z,1003.98
2019-05-29T01:32:48.367Z,1004.00
2019-05-29T01:33:43.360Z,1003.97
2019-05-29T01:34:43.323Z,1003.99
2019-05-29T01:35:43.333Z,1004.01
2019-05-29T01:36:43.303Z,1003.95
2019-05-29T01:37:43.301Z,1003.95
2019-05-29T01:38:43.278Z,1004.03
2019-05-29T01:39:43.288Z,1004.05
2019-05-29T01:40:43.255Z,1004.04
2019-05-29T01:41:43.245Z,1004.09
2019-05-29T01:42:43.240Z,1004.06
2019-05-29T01:43:48.243Z,1004.10
2019-05-29T01:44:43.220Z,1004.05
2019-05-29T01:45:43.199Z,1004.10
2019-05-29T01:46:43.194Z,1004.08
2019-05-29T01:47:43.179Z,1004.11
2019-05-29T01:48:43.191Z,1004.06
2019-05-29T01:49:43.175Z,1004.11
2019-05-29T01:50:43.149Z,1004.08
2019-05-29T01:51:43.132Z,1004.11
2019-05-29T01:52:43.123Z,1004.07
2019-05-29T01:53:43.117Z,1004.12
2019-05-29T01:54:48.139Z,1004.14
2019-05-29T01:55:43.089Z,1004.16
2019-05-29T01:56:43.087Z,1004.15
2019-05-29T01:57:43.068Z,1004.11
2019-05-29T01:58:43.058Z,1004.11
2019-05-29T01:59:43.080Z,1004.12
2019-05-29T02:00:43.034Z,1004.15
2019-05-29T02:01:43.025Z,1004.16
2019-05-29T02:02:43.044Z,1004.16
2019-05-29T02:03:43.010Z,1004.19
2019-05-29T02:04:43.013Z,1004.18
2019-05-29T02:05:48.005Z,1004.23
2019-05-29T02:06:42.969Z,1004.18
2019-05-29T02:07:42.957Z,1004.14
2019-05-29T02:08:42.948Z,1004.23
2019-05-29T02:09:42.954Z,1004.23
2019-05-29T02:10:42.926Z,1004.25
2019-05-29T02:11:42.914Z,1004.31
2019-05-29T02:12:42.902Z,1004.28
2019-05-29T02:13:42.899Z,1004.31
2019-05-29T02:14:42.897Z,1004.30
2019-05-29T02:15:42.872Z,1004.33
2019-05-29T02:16:47.885Z,1004.34
2019-05-29T02:17:42.848Z,1004.36
2019-05-29T02:18:42.839Z,1004.36
2019-05-29T02:19:42.840Z,1004.39
2019-05-29T02:20:42.819Z,1004.37
2019-05-29T02:21:42.805Z,1004.43
2019-05-29T02:22:42.806Z,1004.41
2019-05-29T02:23:42.783Z,1004.40
2019-05-29T02:24:42.791Z,1004.45
2019-05-29T02:25:42.761Z,1004.44
2019-05-29T02:26:42.750Z,1004.47
2019-05-29T02:27:47.760Z,1004.51
2019-05-29T02:28:42.751Z,1004.57
2019-05-29T02:29:42.719Z,1004.50
2019-05-29T02:30:42.719Z,1004.53
2019-05-29T02:31:42.707Z,1004.50
2019-05-29T02:32:42.685Z,1004.55
2019-05-29T02:33:42.675Z,1004.53
2019-05-29T02:34:42.682Z,1004.53
2019-05-29T02:35:42.668Z,1004.49
2019-05-29T02:36:42.641Z,1004.52
2019-05-29T02:37:42.637Z,1004.50
2019-05-29T02:38:47.690Z,1004.54
2019-05-29T02:39:42.613Z,1004.58
2019-05-29T02:40:42.622Z,1004.48
2019-05-29T02:41:42.588Z,1004.58
2019-05-29T02:42:42.573Z,1004.59
2019-05-29T02:43:42.564Z,1004.58
2019-05-29T02:44:42.557Z,1004.59
2019-05-29T02:45:53.905Z,1004.62
2019-05-29T02:46:43.530Z,1004.65
2019-05-29T02:47:42.521Z,1004.58
2019-05-29T02:48:42.513Z,1004.59
2019-05-29T02:49:47.527Z,1004.59
2019-05-29T02:50:42.495Z,1004.65
2019-05-29T02:51:42.486Z,1004.60
2019-05-29T02:52:42.464Z,1004.62
2019-05-29T02:53:42.455Z,1004.64
2019-05-29T02:54:42.441Z,1004.72
2019-05-29T02:55:42.670Z,1004.67
2019-05-29T02:56:42.929Z,1004.74
2019-05-29T02:57:42.410Z,1004.69
2019-05-29T02:58:42.402Z,1004.72
2019-05-29T02:59:42.389Z,1004.74
2019-05-29T03:00:47.408Z,1004.72
2019-05-29T03:01:42.370Z,1004.76
2019-05-29T03:02:42.377Z,1004.73
2019-05-29T03:03:42.343Z,1004.70
2019-05-29T03:04:42.333Z,1004.74
2019-05-29T03:05:42.332Z,1004.74
2019-05-29T03:06:42.320Z,1004.82
2019-05-29T03:07:42.301Z,1004.83
2019-05-29T03:08:42.305Z,1004.86
2019-05-29T03:09:42.277Z,1004.82
2019-05-29T03:10:42.280Z,1004.78
2019-05-29T03:11:47.279Z,1004.81
2019-05-29T03:12:42.251Z,1004.90
2019-05-29T03:13:42.239Z,1004.83
2019-05-29T03:14:42.239Z,1004.96
2019-05-29T03:15:42.247Z,1004.94
2019-05-29T03:16:42.202Z,1004.89
2019-05-29T03:17:42.187Z,1004.97
2019-05-29T03:18:42.201Z,1004.96
2019-05-29T03:19:42.165Z,1005.03
2019-05-29T03:20:42.153Z,1005.05
2019-05-29T03:21:42.154Z,1005.01
2019-05-29T03:22:47.153Z,1004.95
2019-05-29T03:23:42.133Z,1004.94
2019-05-29T03:24:42.116Z,1005.04
2019-05-29T03:25:42.120Z,1005.04
2019-05-29T03:26:42.118Z,1005.07
2019-05-29T03:27:42.076Z,1005.12
2019-05-29T03:28:42.085Z,1005.13
2019-05-29T03:29:42.080Z,1005.17
2019-05-29T03:30:45.975Z,1005.17
2019-05-29T03:31:47.384Z,1005.20
2019-05-29T03:32:47.685Z,1005.18
2019-05-29T03:33:50.309Z,1005.19
2019-05-29T03:34:46.882Z,1005.23
2019-05-29T03:35:48.077Z,1005.21
2019-05-29T03:36:47.794Z,1005.23
2019-05-29T03:37:42.971Z,1005.19
2019-05-29T03:38:41.958Z,1005.28
2019-05-29T03:39:41.956Z,1005.34
2019-05-29T03:40:41.935Z,1005.30
2019-05-29T03:41:41.949Z,1005.28
2019-05-29T03:42:41.943Z,1005.37
2019-05-29T03:43:41.905Z,1005.42
2019-05-29T03:44:46.909Z,1005.36
2019-05-29T03:45:41.877Z,1005.36
2019-05-29T03:46:45.564Z,1005.39
2019-05-29T03:47:41.863Z,1005.36
2019-05-29T03:48:41.855Z,1005.39
2019-05-29T03:49:41.829Z,1005.42
2019-05-29T03:50:41.820Z,1005.35
2019-05-29T03:51:41.827Z,1005.37
2019-05-29T03:52:41.805Z,1005.39
2019-05-29T03:53:41.797Z,1005.38
2019-05-29T03:54:41.785Z,1005.43
2019-05-29T03:55:46.792Z,1005.40
2019-05-29T03:56:41.789Z,1005.41
2019-05-29T03:57:41.742Z,1005.46
2019-05-29T03:58:41.743Z,1005.46
2019-05-29T03:59:41.723Z,1005.53
2019-05-29T04:00:46.425Z,1005.53
2019-05-29T04:01:42.709Z,1005.58
2019-05-29T04:02:41.684Z,1005.50
2019-05-29T04:03:41.678Z,1005.56
2019-05-29T04:04:41.666Z,1005.63
2019-05-29T04:05:41.662Z,1005.63
2019-05-29T04:06:47.485Z,1005.66
2019-05-29T04:07:41.629Z,1005.63
2019-05-29T04:08:41.617Z,1005.61
2019-05-29T04:09:41.619Z,1005.63
2019-05-29T04:10:41.603Z,1005.73
2019-05-29T04:11:41.585Z,1005.65
2019-05-29T04:12:41.585Z,1005.80
2019-05-29T04:13:41.566Z,1005.70
2019-05-29T04:14:41.555Z,1005.72
2019-05-29T04:15:41.545Z,1005.77
2019-05-29T04:16:58.341Z,1005.76
2019-05-29T04:17:47.548Z,1005.77
2019-05-29T04:18:41.534Z,1005.92
2019-05-29T04:19:41.493Z,1005.84
2019-05-29T04:20:41.488Z,1005.77
2019-05-29T04:21:41.476Z,1005.87
2019-05-29T04:22:41.472Z,1005.89
2019-05-29T04:23:41.456Z,1005.92
2019-05-29T04:24:41.438Z,1005.96
2019-05-29T04:25:42.982Z,1005.89
2019-05-29T04:26:41.422Z,1005.89
2019-05-29T04:27:41.426Z,1005.95
2019-05-29T04:28:46.426Z,1006.00
2019-05-29T04:29:41.391Z,1006.01
2019-05-29T04:30:41.376Z,1006.02
2019-05-29T04:31:41.393Z,1005.94
2019-05-29T04:32:41.372Z,1006.04
2019-05-29T04:33:41.361Z,1006.02
2019-05-29T04:34:41.335Z,1006.00
2019-05-29T04:35:41.315Z,1006.07
2019-05-29T04:36:41.311Z,1005.98
2019-05-29T04:37:41.683Z,1006.01
2019-05-29T04:38:41.290Z,1006.04
2019-05-29T04:39:46.302Z,1006.14
2019-05-29T04:40:41.259Z,1006.16
2019-05-29T04:41:41.251Z,1006.10
2019-05-29T04:42:41.260Z,1006.22
2019-05-29T04:43:41.239Z,1006.13
2019-05-29T04:44:41.445Z,1006.14
2019-05-29T04:45:41.207Z,1006.16
2019-05-29T04:46:41.193Z,1006.20
2019-05-29T04:47:41.234Z,1006.21
2019-05-29T04:48:41.169Z,1006.22
2019-05-29T04:49:41.167Z,1006.24
2019-05-29T04:50:46.173Z,1006.25
2019-05-29T04:51:41.137Z,1006.25
2019-05-29T04:52:41.154Z,1006.30
2019-05-29T04:53:41.118Z,1006.24
2019-05-29T04:54:41.106Z,1006.32
2019-05-29T04:55:41.091Z,1006.34
2019-05-29T04:56:41.095Z,1006.29
2019-05-29T04:57:41.071Z,1006.33
2019-05-29T04:58:41.071Z,1006.31
2019-05-29T04:59:41.046Z,1006.34
2019-05-29T05:00:56.050Z,1006.32
2019-05-29T05:01:47.045Z,1006.32
2019-05-29T05:02:41.062Z,1006.35
2019-05-29T05:03:41.013Z,1006.33
2019-05-29T05:04:41.004Z,1006.41
2019-05-29T05:05:40.980Z,1006.40
2019-05-29T05:06:40.975Z,1006.46
2019-05-29T05:07:40.994Z,1006.40
2019-05-29T05:08:40.970Z,1006.41
2019-05-29T05:09:40.934Z,1006.42
2019-05-29T05:10:41.348Z,1006.46
2019-05-29T05:11:40.910Z,1006.49
2019-05-29T05:12:46.035Z,1006.51
2019-05-29T05:13:40.903Z,1006.53
2019-05-29T05:14:40.878Z,1006.58
2019-05-29T05:15:40.868Z,1006.52
2019-05-29T05:16:40.866Z,1006.55
2019-05-29T05:17:40.853Z,1006.59
2019-05-29T05:18:40.843Z,1006.49
2019-05-29T05:19:40.822Z,1006.53
2019-05-29T05:20:40.810Z,1006.60
2019-05-29T05:21:40.800Z,1006.63
2019-05-29T05:22:41.126Z,1006.62
2019-05-29T05:23:45.810Z,1006.63
2019-05-29T05:24:43.778Z,1006.64
2019-05-29T05:25:41.108Z,1006.65
2019-05-29T05:26:40.765Z,1006.64
2019-05-29T05:27:40.775Z,1006.65
2019-05-29T05:28:44.179Z,1006.67
2019-05-29T05:29:40.718Z,1006.70
2019-05-29T05:30:40.949Z,1006.74
2019-05-29T05:31:40.926Z,1006.69
2019-05-29T05:32:41.173Z,1006.72
2019-05-29T05:33:41.100Z,1006.75
2019-05-29T05:34:45.679Z,1006.77
2019-05-29T05:35:41.068Z,1006.80
2019-05-29T05:36:41.104Z,1006.86
2019-05-29T05:37:41.042Z,1006.80
2019-05-29T05:38:41.129Z,1006.84
2019-05-29T05:39:41.170Z,1006.86
2019-05-29T05:40:43.081Z,1006.83
2019-05-29T05:41:41.092Z,1006.89
2019-05-29T05:42:41.290Z,1006.91
2019-05-29T05:43:41.383Z,1006.86
2019-05-29T05:44:41.135Z,1006.95
2019-05-29T05:45:45.555Z,1006.89
2019-05-29T05:46:41.302Z,1006.97
2019-05-29T05:47:53.628Z,1006.89
2019-05-29T05:48:41.816Z,1006.92
2019-05-29T05:49:41.822Z,1006.97
2019-05-29T05:50:41.505Z,1007.04
2019-05-29T05:51:44.200Z,1007.05
2019-05-29T05:52:41.528Z,1007.07
2019-05-29T05:53:41.567Z,1007.12
2019-05-29T05:54:41.544Z,1007.14
2019-05-29T05:55:41.721Z,1007.17
2019-05-29T05:56:45.438Z,1007.14
2019-05-29T05:57:40.400Z,1007.11
2019-05-29T05:58:40.393Z,1007.24
2019-05-29T05:59:40.414Z,1007.17
2019-05-29T06:00:40.413Z,1007.25
2019-05-29T06:01:40.354Z,1007.30
2019-05-29T06:02:40.346Z,1007.24
2019-05-29T06:03:40.655Z,1007.24
2019-05-29T06:04:40.345Z,1007.25
2019-05-29T06:05:40.335Z,1007.26
2019-05-29T06:06:40.342Z,1007.28
2019-05-29T06:07:45.313Z,1007.29
2019-05-29T06:08:40.310Z,1007.30
2019-05-29T06:09:40.455Z,1007.30
2019-05-29T06:10:40.349Z,1007.33
2019-05-29T06:11:40.428Z,1007.31
2019-05-29T06:12:40.589Z,1007.30
2019-05-29T06:13:40.503Z,1007.32
2019-05-29T06:14:40.656Z,1007.32
2019-05-29T06:15:40.649Z,1007.34
2019-05-29T06:16:40.712Z,1007.37
2019-05-29T06:17:40.725Z,1007.40
2019-05-29T06:18:45.194Z,1007.45
2019-05-29T06:19:41.139Z,1007.30
2019-05-29T06:20:40.986Z,1007.44
2019-05-29T06:21:40.884Z,1007.37
2019-05-29T06:22:41.128Z,1007.38
2019-05-29T06:23:41.133Z,1007.40
2019-05-29T06:24:40.983Z,1007.36
2019-05-29T06:25:40.760Z,1007.42
2019-05-29T06:26:41.079Z,1007.34
2019-05-29T06:27:41.369Z,1007.39
2019-05-29T06:28:41.188Z,1007.42
2019-05-29T06:29:45.095Z,1007.44
2019-05-29T06:30:41.286Z,1007.44
2019-05-29T06:31:41.126Z,1007.54
2019-05-29T06:32:40.024Z,1007.49
2019-05-29T06:33:40.024Z,1007.51
2019-05-29T06:34:41.543Z,1007.53
2019-05-29T06:35:40.035Z,1007.47
2019-05-29T06:36:39.985Z,1007.52
2019-05-29T06:37:39.966Z,1007.50
2019-05-29T06:38:40.514Z,1007.60
2019-05-29T06:39:39.955Z,1007.59
2019-05-29T06:40:44.974Z,1007.66
2019-05-29T06:41:40.197Z,1007.61
2019-05-29T06:42:39.952Z,1007.60
2019-05-29T06:43:39.992Z,1007.59
2019-05-29T06:44:41.532Z,1007.63
2019-05-29T06:45:40.070Z,1007.66
2019-05-29T06:46:40.452Z,1007.68
2019-05-29T06:47:40.810Z,1007.73
2019-05-29T06:48:48.063Z,1007.67
2019-05-29T06:49:42.094Z,1007.67
2019-05-29T06:50:41.367Z,1007.72
2019-05-29T06:51:44.844Z,1007.72
2019-05-29T06:52:39.820Z,1007.71
2019-05-29T06:53:39.888Z,1007.71
2019-05-29T06:54:40.051Z,1007.73
2019-05-29T06:55:39.946Z,1007.78
2019-05-29T06:56:39.862Z,1007.82
2019-05-29T06:57:40.288Z,1007.77
2019-05-29T06:58:40.112Z,1007.80
2019-05-29T06:59:40.433Z,1007.80
2019-05-29T07:00:41.034Z,1007.81
2019-05-29T07:01:39.706Z,1007.86
2019-05-29T07:02:44.902Z,1007.87
2019-05-29T07:03:39.768Z,1007.82
2019-05-29T07:04:40.422Z,1007.86
2019-05-29T07:05:39.922Z,1007.88
2019-05-29T07:06:40.702Z,1007.93
2019-05-29T07:07:40.341Z,1007.96
2019-05-29T07:08:44.212Z,1007.97
2019-05-29T07:09:41.097Z,1008.00
2019-05-29T07:10:40.383Z,1007.91
2019-05-29T07:11:39.598Z,1008.00
2019-05-29T07:12:40.302Z,1008.00
2019-05-29T07:13:47.666Z,1008.02
2019-05-29T07:14:40.554Z,1007.99
2019-05-29T07:15:40.781Z,1008.05
2019-05-29T07:16:49.118Z,1008.12
2019-05-29T07:17:40.551Z,1008.13
2019-05-29T07:18:45.368Z,1008.10
2019-05-29T07:19:56.654Z,1008.09
2019-05-29T07:20:40.704Z,1008.13
2019-05-29T07:21:40.751Z,1008.15
2019-05-29T07:22:40.778Z,1008.20
2019-05-29T07:23:41.144Z,1008.21
2019-05-29T07:24:45.072Z,1008.17
2019-05-29T07:25:40.577Z,1008.24
2019-05-29T07:26:39.434Z,1008.18
2019-05-29T07:27:39.445Z,1008.22
2019-05-29T07:28:59.820Z,1008.28
2019-05-29T07:29:41.111Z,1008.18
2019-05-29T07:30:39.410Z,1008.24
2019-05-29T07:31:39.371Z,1008.23
2019-05-29T07:32:40.966Z,1008.27
2019-05-29T07:33:39.334Z,1008.23
2019-05-29T07:34:53.723Z,1008.27
2019-05-29T07:35:45.677Z,1008.37
2019-05-29T07:36:39.938Z,1008.43
2019-05-29T07:37:39.746Z,1008.42
2019-05-29T07:38:39.615Z,1008.43
2019-05-29T07:39:39.473Z,1008.39
2019-05-29T07:40:40.709Z,1008.34
2019-05-29T07:41:39.612Z,1008.39
2019-05-29T07:42:41.680Z,1008.36
2019-05-29T07:43:40.249Z,1008.39
2019-05-29T07:44:39.948Z,1008.35
2019-05-29T07:45:40.602Z,1008.33
2019-05-29T07:46:45.284Z,1008.37
2019-05-29T07:47:40.435Z,1008.44
2019-05-29T07:48:40.387Z,1008.39
2019-05-29T07:49:42.740Z,1008.41
2019-05-29T07:50:40.187Z,1008.46
2019-05-29T07:51:40.528Z,1008.45
2019-05-29T07:52:40.648Z,1008.49
2019-05-29T07:53:40.122Z,1008.39
2019-05-29T07:54:39.978Z,1008.41
2019-05-29T07:55:40.342Z,1008.46
2019-05-29T07:56:40.280Z,1008.41
2019-05-29T07:57:44.889Z,1008.50
2019-05-29T07:58:39.082Z,1008.48
2019-05-29T07:59:39.057Z,1008.44
2019-05-29T08:01:01.095Z,1008.52
2019-05-29T08:01:40.748Z,1008.42
2019-05-29T08:02:39.430Z,1008.50
2019-05-29T08:03:39.316Z,1008.52
2019-05-29T08:04:39.001Z,1008.53
2019-05-29T08:05:39.224Z,1008.53
2019-05-29T08:06:46.232Z,1008.56
2019-05-29T08:07:41.339Z,1008.51
2019-05-29T08:08:45.250Z,1008.53
2019-05-29T08:09:39.320Z,1008.49
2019-05-29T08:10:39.967Z,1008.61
2019-05-29T08:11:39.508Z,1008.55
2019-05-29T08:12:42.457Z,1008.56
2019-05-29T08:13:39.905Z,1008.48
2019-05-29T08:14:39.671Z,1008.53
2019-05-29T08:15:54.029Z,1008.58
2019-05-29T08:16:39.866Z,1008.61
2019-05-29T08:17:39.979Z,1008.58
2019-05-29T08:18:41.123Z,1008.59
2019-05-29T08:19:59.270Z,1008.62
2019-05-29T08:20:39.879Z,1008.53
2019-05-29T08:21:40.803Z,1008.67
2019-05-29T08:22:40.102Z,1008.64
2019-05-29T08:23:40.169Z,1008.67
2019-05-29T08:24:38.783Z,1008.63
2019-05-29T08:25:38.750Z,1008.69
2019-05-29T08:26:38.754Z,1008.72
2019-05-29T08:27:38.727Z,1008.71
2019-05-29T08:28:38.723Z,1008.72
2019-05-29T08:29:38.707Z,1008.67
2019-05-29T08:30:48.317Z,1008.73
2019-05-29T08:31:40.663Z,1008.72
2019-05-29T08:32:38.676Z,1008.73
2019-05-29T08:33:38.681Z,1008.81
2019-05-29T08:34:38.669Z,1008.73
2019-05-29T08:35:38.654Z,1008.75
2019-05-29T08:36:38.654Z,1008.67
2019-05-29T08:37:38.618Z,1008.70
2019-05-29T08:38:38.620Z,1008.74
2019-05-29T08:39:38.601Z,1008.74
2019-05-29T08:40:38.597Z,1008.76
2019-05-29T08:41:52.524Z,1008.84
2019-05-29T08:42:39.571Z,1008.82
2019-05-29T08:43:38.551Z,1008.70
2019-05-29T08:44:38.542Z,1008.73
2019-05-29T08:45:38.529Z,1008.73
2019-05-29T08:46:38.537Z,1008.75
2019-05-29T08:47:38.508Z,1008.78
2019-05-29T08:48:38.495Z,1008.76
2019-05-29T08:49:38.491Z,1008.73
2019-05-29T08:50:38.469Z,1008.79
2019-05-29T08:51:38.485Z,1008.81
2019-05-29T08:52:43.948Z,1008.72
2019-05-29T08:53:38.448Z,1008.80
2019-05-29T08:54:38.469Z,1008.84
2019-05-29T08:55:38.432Z,1008.83
2019-05-29T08:56:38.423Z,1008.88
2019-05-29T08:57:38.405Z,1008.88
2019-05-29T08:58:38.792Z,1008.81
2019-05-29T08:59:38.377Z,1008.83
2019-05-29T09:00:38.372Z,1008.88
2019-05-29T09:01:38.367Z,1008.84
2019-05-29T09:02:38.347Z,1008.87
2019-05-29T09:03:44.733Z,1008.83
2019-05-29T09:04:38.384Z,1008.86
2019-05-29T09:05:38.304Z,1008.85
2019-05-29T09:06:38.313Z,1008.88
2019-05-29T09:07:38.302Z,1008.91
2019-05-29T09:08:38.281Z,1008.94
2019-05-29T09:09:38.283Z,1008.93
2019-05-29T09:10:38.454Z,1008.90
2019-05-29T09:11:38.255Z,1008.92
2019-05-29T09:12:38.250Z,1008.97
2019-05-29T09:13:38.251Z,1009.00
2019-05-29T09:14:43.233Z,1008.98
2019-05-29T09:15:38.202Z,1009.02
2019-05-29T09:16:38.201Z,1009.02
2019-05-29T09:17:38.208Z,1009.04
2019-05-29T09:18:38.165Z,1009.01
2019-05-29T09:19:38.166Z,1009.12
2019-05-29T09:21:00.983Z,1009.10
2019-05-29T09:21:39.135Z,1009.08
2019-05-29T09:22:38.131Z,1009.15
2019-05-29T09:23:38.125Z,1009.10
2019-05-29T09:24:38.112Z,1009.13
2019-05-29T09:25:43.131Z,1009.12
2019-05-29T09:26:38.083Z,1009.15
2019-05-29T09:27:38.082Z,1009.15
2019-05-29T09:28:38.060Z,1009.15
2019-05-29T09:29:38.080Z,1009.17
2019-05-29T09:30:38.046Z,1009.17
2019-05-29T09:31:38.015Z,1009.22
2019-05-29T09:32:50.536Z,1009.12
2019-05-29T09:33:38.993Z,1009.18
2019-05-29T09:34:38.008Z,1009.21
2019-05-29T09:35:38.001Z,1009.21
2019-05-29T09:36:43.007Z,1009.18
2019-05-29T09:37:37.992Z,1009.20
2019-05-29T09:38:37.956Z,1009.17
2019-05-29T09:39:37.963Z,1009.14
2019-05-29T09:40:37.928Z,1009.18
2019-05-29T09:41:37.933Z,1009.16
2019-05-29T09:42:37.920Z,1009.15
2019-05-29T09:43:37.988Z,1009.14
2019-05-29T09:44:39.880Z,1009.15
2019-05-29T09:45:37.869Z,1009.21
2019-05-29T09:46:37.880Z,1009.18
2019-05-29T09:47:42.871Z,1009.19
2019-05-29T09:48:49.188Z,1009.20
2019-05-29T09:49:38.827Z,1009.13
2019-05-29T09:50:49.474Z,1009.18
2019-05-29T09:51:38.810Z,1009.19
2019-05-29T09:52:37.828Z,1009.14
2019-05-29T09:53:37.781Z,1009.18
2019-05-29T09:54:37.829Z,1009.18
2019-05-29T09:55:37.769Z,1009.16
2019-05-29T09:56:37.752Z,1009.17
2019-05-29T09:57:37.750Z,1009.17
2019-05-29T09:58:42.777Z,1009.13
2019-05-29T09:59:37.749Z,1009.17
2019-05-29T10:00:37.704Z,1009.19
2019-05-29T10:01:37.698Z,1009.30
2019-05-29T10:02:37.721Z,1009.26
2019-05-29T10:03:37.669Z,1009.28
2019-05-29T10:04:37.659Z,1009.22
2019-05-29T10:05:37.640Z,1009.18
2019-05-29T10:06:37.645Z,1009.22
2019-05-29T10:07:37.634Z,1009.26
2019-05-29T10:08:37.623Z,1009.20
2019-05-29T10:09:42.639Z,1009.26
2019-05-29T10:10:37.605Z,1009.22
2019-05-29T10:11:37.575Z,1009.25
2019-05-29T10:12:37.580Z,1009.22
2019-05-29T10:13:37.559Z,1009.22
2019-05-29T10:14:37.540Z,1009.27
2019-05-29T10:15:37.542Z,1009.21
2019-05-29T10:16:37.520Z,1009.28
2019-05-29T10:17:37.577Z,1009.28
2019-05-29T10:18:37.505Z,1009.28
2019-05-29T10:19:37.510Z,1009.29
2019-05-29T10:20:42.531Z,1009.24
2019-05-29T10:21:40.800Z,1009.28
2019-05-29T10:22:37.475Z,1009.25
2019-05-29T10:23:37.475Z,1009.23
2019-05-29T10:24:37.424Z,1009.28
2019-05-29T10:25:37.423Z,1009.28
2019-05-29T10:26:37.417Z,1009.30
2019-05-29T10:27:37.396Z,1009.31
2019-05-29T10:28:49.961Z,1009.33
2019-05-29T10:29:38.370Z,1009.43
2019-05-29T10:30:37.357Z,1009.41
2019-05-29T10:31:42.399Z,1009.40
2019-05-29T10:32:37.344Z,1009.39
2019-05-29T10:33:37.387Z,1009.37
2019-05-29T10:34:37.327Z,1009.31
2019-05-29T10:35:37.345Z,1009.32
2019-05-29T10:36:37.299Z,1009.34
2019-05-29T10:37:37.293Z,1009.29
2019-05-29T10:38:37.278Z,1009.32
2019-05-29T10:39:37.308Z,1009.43
2019-05-29T10:40:37.274Z,1009.36
2019-05-29T10:41:37.238Z,1009.43
2019-05-29T10:42:43.082Z,1009.35
2019-05-29T10:43:37.244Z,1009.38
2019-05-29T10:44:37.218Z,1009.34
2019-05-29T10:45:37.198Z,1009.33
2019-05-29T10:46:37.183Z,1009.31
2019-05-29T10:47:37.220Z,1009.28
2019-05-29T10:48:37.202Z,1009.32
2019-05-29T10:49:37.148Z,1009.40
2019-05-29T10:50:37.285Z,1009.33
2019-05-29T10:51:37.130Z,1009.38
2019-05-29T10:52:37.158Z,1009.35
2019-05-29T10:53:42.199Z,1009.36
2019-05-29T10:54:39.208Z,1009.34
2019-05-29T10:55:37.093Z,1009.33
2019-05-29T10:56:37.102Z,1009.38
2019-05-29T10:57:37.265Z,1009.36
2019-05-29T10:58:48.634Z,1009.30
2019-05-29T10:59:38.070Z,1009.34
2019-05-29T11:00:39.116Z,1009.34
2019-05-29T11:01:37.026Z,1009.28
2019-05-29T11:02:37.020Z,1009.34
2019-05-29T11:03:36.990Z,1009.28
2019-05-29T11:04:42.039Z,1009.44
2019-05-29T11:05:36.980Z,1009.58
2019-05-29T11:06:40.553Z,1009.35
2019-05-29T11:07:36.948Z,1009.60
2019-05-29T11:08:36.978Z,1009.67
2019-05-29T11:09:44.565Z,1009.59
2019-05-29T11:10:37.908Z,1009.65
2019-05-29T11:11:36.915Z,1009.67
2019-05-29T11:12:39.460Z,1009.61
2019-05-29T11:13:36.887Z,1009.67
2019-05-29T11:14:36.888Z,1009.56
2019-05-29T11:15:41.901Z,1009.63
2019-05-29T11:16:39.716Z,1009.67
2019-05-29T11:17:36.834Z,1009.70
2019-05-29T11:18:36.856Z,1009.63
2019-05-29T11:19:36.895Z,1009.64
2019-05-29T11:20:36.881Z,1009.63
2019-05-29T11:21:36.801Z,1009.39
2019-05-29T11:22:36.788Z,1009.21
2019-05-29T11:23:36.805Z,1009.31
2019-05-29T11:24:36.779Z,1009.21
2019-05-29T11:25:36.749Z,1009.24
2019-05-29T11:26:41.762Z,1009.24
2019-05-29T11:27:36.743Z,1009.27
2019-05-29T11:28:36.804Z,1009.32
2019-05-29T11:29:36.744Z,1009.25
2019-05-29T11:30:36.731Z,1009.29
2019-05-29T11:31:36.703Z,1009.33
2019-05-29T11:32:36.752Z,1009.26
2019-05-29T11:33:36.659Z,1009.23
2019-05-29T11:34:36.693Z,1009.33
2019-05-29T11:35:36.652Z,1009.30
2019-05-29T11:36:36.627Z,1009.28
2019-05-29T11:37:41.641Z,1009.27
2019-05-29T11:38:36.608Z,1009.31
2019-05-29T11:39:36.605Z,1009.38
2019-05-29T11:40:36.732Z,1009.34
2019-05-29T11:41:36.602Z,1009.32
2019-05-29T11:42:36.565Z,1009.29
2019-05-29T11:43:36.581Z,1009.28
2019-05-29T11:44:36.673Z,1009.35
2019-05-29T11:45:36.587Z,1009.30
2019-05-29T11:46:36.531Z,1009.40
2019-05-29T11:47:36.508Z,1009.39
2019-05-29T11:48:41.522Z,1009.39
2019-05-29T11:49:36.508Z,1009.66
2019-05-29T11:50:36.479Z,1009.41
2019-05-29T11:51:36.574Z,1009.37
2019-05-29T11:52:43.032Z,1009.25
2019-05-29T11:53:37.456Z,1009.35
2019-05-29T11:54:36.432Z,1009.40
2019-05-29T11:55:36.445Z,1009.39
2019-05-29T11:56:36.411Z,1009.30
2019-05-29T11:57:39.498Z,1009.32
2019-05-29T11:58:36.400Z,1009.24
2019-05-29T11:59:41.420Z,1009.33
2019-05-29T12:00:36.379Z,1009.31
2019-05-29T12:01:49.752Z,1009.32
2019-05-29T12:02:37.414Z,1009.33
2019-05-29T12:03:36.339Z,1009.33
2019-05-29T12:04:36.341Z,1009.26
2019-05-29T12:05:36.358Z,1009.38